Time;durP1;ratioP1;P1;durP2;ratioP2;P2;SDS_P1;SDS_P2;PMS_P1;PMS_P2;Temp;Humidity;BMP_temperature;BMP_pressure;BME280_temperature;BME280_humidity;BME280_pressure;Samples;Min_cycle;Max_cycle;Signal;HPM_P1;HPM_P2
2023/07/17 00:01:20;;;;;;;7.07;3.40;;;;;;;;;;4997332;28;20038;-78
2023/07/17 00:03:46;;;;;;;8.30;3.47;;;;;;;;;;5016195;28;20030;-76
2023/07/17 00:06:12;;;;;;;9.65;3.22;;;;;;;;;;5000113;28;20137;-78
2023/07/17 00:08:38;;;;;;;10.45;3.72;;;;;;;;;;5001925;28;20030;-78
2023/07/17 00:11:04;;;;;;;6.82;3.63;;;;;;;;;;5000752;28;20490;-77
2023/07/17 00:13:30;;;;;;;6.13;3.15;;;;;;;;;;5006655;28;20038;-76
2023/07/17 00:15:56;;;;;;;8.32;3.50;;;;;;;;;;4999057;28;20427;-76
2023/07/17 00:18:22;;;;;;;9.60;3.42;;;;;;;;;;4999355;28;20034;-76
2023/07/17 00:20:50;;;;;;;8.40;2.85;;;;;;;;;;4998796;28;20530;-77
2023/07/17 00:23:16;;;;;;;7.75;3.13;;;;;;;;;;4998440;28;20038;-76
2023/07/17 00:25:42;;;;;;;9.75;3.85;;;;;;;;;;4996975;28;20502;-78
2023/07/17 00:28:08;;;;;;;14.45;4.07;;;;;;;;;;4999337;28;20054;-76
2023/07/17 00:30:38;;;;;;;8.85;3.67;;;;;;;;;;5002595;28;20045;-77
2023/07/17 00:33:04;;;;;;;9.85;4.18;;;;;;;;;;5018822;28;20072;-77
2023/07/17 00:35:30;;;;;;;8.02;3.40;;;;;;;;;;4999726;28;20506;-75
2023/07/17 00:37:56;;;;;;;6.40;3.40;;;;;;;;;;4999828;28;20041;-77
2023/07/17 00:40:22;;;;;;;10.23;4.55;;;;;;;;;;4997931;28;20033;-77
2023/07/17 00:42:48;;;;;;;5.80;3.40;;;;;;;;;;5002490;28;20121;-77
2023/07/17 00:45:14;;;;;;;15.02;4.40;;;;;;;;;;5002092;28;21701;-77
2023/07/17 00:47:40;;;;;;;9.23;4.03;;;;;;;;;;4998317;28;20033;-76
2023/07/17 00:50:08;;;;;;;10.30;4.38;;;;;;;;;;4998679;28;20034;-76
2023/07/17 00:52:35;;;;;;;9.07;3.65;;;;;;;;;;4997975;28;20029;-78
2023/07/17 00:55:01;;;;;;;7.40;3.50;;;;;;;;;;5019010;28;20026;-74
2023/07/17 00:57:27;;;;;;;8.63;3.38;;;;;;;;;;4998257;28;20049;-76
2023/07/17 00:59:53;;;;;;;10.30;3.47;;;;;;;;;;4999977;28;20682;-78
2023/07/17 01:02:22;;;;;;;9.93;4.13;;;;;;;;;;4999456;28;20045;-75
2023/07/17 01:04:48;;;;;;;6.38;3.05;;;;;;;;;;4995711;28;20129;-75
2023/07/17 01:07:15;;;;;;;12.07;4.10;;;;;;;;;;5018069;28;20022;-78
2023/07/17 01:09:41;;;;;;;7.10;3.45;;;;;;;;;;4997946;28;20033;-78
2023/07/17 01:12:08;;;;;;;11.32;3.42;;;;;;;;;;4997445;28;20157;-77
2023/07/17 01:14:36;;;;;;;10.05;3.72;;;;;;;;;;4998538;28;20046;-78
2023/07/17 01:17:02;;;;;;;8.40;4.30;;;;;;;;;;4998145;28;20034;-76
2023/07/17 01:19:28;;;;;;;10.35;3.72;;;;;;;;;;4997414;28;20470;-76
2023/07/17 01:21:58;;;;;;;7.90;4.03;;;;;;;;;;4999527;28;20042;-78
2023/07/17 01:24:26;;;;;;;5.95;3.58;;;;;;;;;;5017912;28;20114;-78
2023/07/17 01:26:52;;;;;;;7.80;3.83;;;;;;;;;;5001435;28;20125;-77
2023/07/17 01:29:18;;;;;;;9.60;3.70;;;;;;;;;;4998367;28;20052;-75
2023/07/17 01:31:45;;;;;;;9.13;3.63;;;;;;;;;;4997730;28;20112;-76
2023/07/17 01:34:11;;;;;;;7.95;3.25;;;;;;;;;;4998089;28;20038;-77
2023/07/17 01:36:37;;;;;;;8.07;3.35;;;;;;;;;;4997644;28;20041;-76
2023/07/17 01:39:03;;;;;;;12.93;4.13;;;;;;;;;;4998241;28;20030;-76
2023/07/17 01:41:29;;;;;;;9.32;3.60;;;;;;;;;;4995430;28;20042;-78
2023/07/17 01:43:55;;;;;;;6.85;3.20;;;;;;;;;;4996771;28;20108;-77
2023/07/17 01:46:21;;;;;;;7.30;3.60;;;;;;;;;;4998562;28;20643;-76
2023/07/17 01:48:50;;;;;;;8.30;4.05;;;;;;;;;;4997779;28;20038;-77
2023/07/17 01:51:16;;;;;;;7.43;3.33;;;;;;;;;;4999624;28;20038;-78
2023/07/17 01:53:44;;;;;;;7.88;2.88;;;;;;;;;;5004471;28;20026;-77
2023/07/17 01:56:10;;;;;;;8.85;3.22;;;;;;;;;;5001593;28;20034;-77
2023/07/17 01:58:36;;;;;;;6.25;3.15;;;;;;;;;;5003101;28;20033;-75
2023/07/17 02:01:04;;;;;;;6.95;2.83;;;;;;;;;;5006890;28;20045;-76
2023/07/17 02:03:34;;;;;;;8.27;2.88;;;;;;;;;;5004103;28;20401;-75
2023/07/17 02:06:00;;;;;;;8.20;2.80;;;;;;;;;;5009167;28;20451;-77
2023/07/17 02:08:26;;;;;;;6.93;2.78;;;;;;;;;;5000718;28;20030;-77
2023/07/17 02:10:52;;;;;;;5.68;2.60;;;;;;;;;;5001697;28;20057;-77
2023/07/17 02:13:18;;;;;;;4.80;2.65;;;;;;;;;;5003498;28;20049;-77
2023/07/17 02:15:47;;;;;;;5.97;2.22;;;;;;;;;;5023086;28;20425;-78
2023/07/17 02:18:14;;;;;;;6.45;3.05;;;;;;;;;;5004743;28;20065;-78
2023/07/17 02:20:39;;;;;;;3.83;2.05;;;;;;;;;;5004629;28;20038;-74
2023/07/17 02:23:08;;;;;;;6.75;2.78;;;;;;;;;;5001283;28;20049;-78
2023/07/17 02:25:34;;;;;;;5.90;2.53;;;;;;;;;;5002518;28;20030;-77
2023/07/17 02:28:00;;;;;;;5.43;2.78;;;;;;;;;;5000404;28;20034;-77
2023/07/17 02:30:26;;;;;;;6.13;1.98;;;;;;;;;;5001330;28;20048;-77
2023/07/17 02:32:54;;;;;;;3.78;2.22;;;;;;;;;;5002356;28;20041;-78
2023/07/17 02:35:20;;;;;;;4.88;2.22;;;;;;;;;;5002738;28;20046;-77
2023/07/17 02:37:46;;;;;;;9.38;2.60;;;;;;;;;;5005396;28;20042;-76
2023/07/17 02:40:12;;;;;;;6.03;2.55;;;;;;;;;;5003444;28;20418;-77
2023/07/17 02:42:39;;;;;;;5.20;2.65;;;;;;;;;;5001558;28;20037;-76
2023/07/17 02:45:07;;;;;;;6.68;2.80;;;;;;;;;;5020914;28;20084;-77
2023/07/17 02:47:33;;;;;;;5.55;2.50;;;;;;;;;;5001995;28;20026;-78
2023/07/17 02:49:59;;;;;;;4.25;2.10;;;;;;;;;;5001042;28;20030;-77
2023/07/17 02:52:25;;;;;;;8.02;2.33;;;;;;;;;;5002375;28;20611;-76
2023/07/17 02:54:51;;;;;;;4.88;2.28;;;;;;;;;;5003192;28;20093;-77
2023/07/17 02:57:17;;;;;;;4.70;2.25;;;;;;;;;;5000880;28;20344;-76
2023/07/17 02:59:43;;;;;;;4.18;2.55;;;;;;;;;;5001314;28;20040;-78
2023/07/17 03:02:09;;;;;;;6.45;2.20;;;;;;;;;;4999905;28;20033;-75
2023/07/17 03:04:37;;;;;;;3.25;1.63;;;;;;;;;;5005274;28;20383;-77
2023/07/17 03:07:03;;;;;;;5.93;2.25;;;;;;;;;;5000507;28;20038;-76
2023/07/17 03:09:32;;;;;;;9.60;2.15;;;;;;;;;;5002097;28;20471;-75
2023/07/17 03:11:58;;;;;;;5.63;2.38;;;;;;;;;;5001159;28;20040;-78
2023/07/17 03:14:24;;;;;;;5.88;2.97;;;;;;;;;;5016356;28;20038;-76
2023/07/17 03:16:50;;;;;;;6.07;2.33;;;;;;;;;;4999755;28;20042;-78
2023/07/17 03:19:16;;;;;;;4.03;2.20;;;;;;;;;;5000032;28;20034;-77
2023/07/17 03:21:42;;;;;;;5.28;2.63;;;;;;;;;;5015901;28;20549;-77
2023/07/17 03:24:08;;;;;;;5.43;2.47;;;;;;;;;;5001966;28;20044;-77
2023/07/17 03:26:34;;;;;;;3.50;2.05;;;;;;;;;;4999276;28;20077;-76
2023/07/17 03:29:00;;;;;;;7.90;2.50;;;;;;;;;;5000748;28;20407;-74
2023/07/17 03:31:26;;;;;;;4.63;2.30;;;;;;;;;;4999815;28;20057;-77
2023/07/17 03:33:52;;;;;;;3.75;2.38;;;;;;;;;;4999334;28;20068;-75
2023/07/17 03:36:18;;;;;;;4.40;2.13;;;;;;;;;;5000408;28;20041;-77
2023/07/17 03:38:46;;;;;;;7.25;2.38;;;;;;;;;;4998669;28;20038;-77
2023/07/17 03:41:12;;;;;;;7.22;2.90;;;;;;;;;;5000671;28;20053;-76
2023/07/17 03:43:40;;;;;;;7.18;2.70;;;;;;;;;;5000680;28;20026;-77
2023/07/17 03:46:06;;;;;;;5.45;2.67;;;;;;;;;;5001970;28;20030;-78
2023/07/17 03:48:32;;;;;;;7.20;2.35;;;;;;;;;;5001396;28;20041;-78
2023/07/17 03:50:58;;;;;;;4.47;2.28;;;;;;;;;;4998149;28;20033;-76
2023/07/17 03:53:24;;;;;;;6.35;2.30;;;;;;;;;;4996565;28;20168;-78
2023/07/17 03:55:50;;;;;;;5.15;2.13;;;;;;;;;;4999843;28;20281;-76
2023/07/17 03:58:16;;;;;;;4.47;2.10;;;;;;;;;;4997107;28;20069;-76
2023/07/17 04:00:43;;;;;;;8.82;2.60;;;;;;;;;;4999591;28;20053;-77
2023/07/17 04:03:09;;;;;;;5.70;2.47;;;;;;;;;;5000898;28;20088;-78
2023/07/17 04:05:35;;;;;;;3.10;2.13;;;;;;;;;;5019315;28;20110;-77
2023/07/17 04:08:01;;;;;;;10.35;2.67;;;;;;;;;;5003312;28;21611;-78
2023/07/17 04:10:28;;;;;;;8.40;2.78;;;;;;;;;;4999588;28;20099;-78
2023/07/17 04:12:54;;;;;;;6.07;2.78;;;;;;;;;;5006604;28;20034;-78
2023/07/17 04:15:20;;;;;;;4.47;2.30;;;;;;;;;;4999261;28;20052;-77
2023/07/17 04:17:46;;;;;;;7.40;2.40;;;;;;;;;;4998056;28;20053;-74
2023/07/17 04:20:12;;;;;;;4.15;2.42;;;;;;;;;;5019184;28;20042;-77
2023/07/17 04:22:38;;;;;;;5.80;2.70;;;;;;;;;;5001808;28;20136;-77
2023/07/17 04:25:05;;;;;;;4.35;2.15;;;;;;;;;;4998210;28;20164;-78
2023/07/17 04:27:31;;;;;;;6.40;2.65;;;;;;;;;;5003232;28;20064;-77
2023/07/17 04:29:57;;;;;;;6.32;2.40;;;;;;;;;;4999894;28;20066;-77
2023/07/17 04:32:23;;;;;;;4.85;2.10;;;;;;;;;;4999257;28;20124;-78
2023/07/17 04:34:49;;;;;;;5.55;1.98;;;;;;;;;;5003343;28;21573;-77
2023/07/17 04:37:15;;;;;;;5.05;2.05;;;;;;;;;;4999813;28;20042;-75
2023/07/17 04:39:41;;;;;;;6.50;2.70;;;;;;;;;;4999184;28;20038;-76
2023/07/17 04:42:09;;;;;;;8.18;2.55;;;;;;;;;;4998963;28;20025;-78
2023/07/17 04:44:34;;;;;;;3.75;2.40;;;;;;;;;;5000427;28;20023;-77
2023/07/17 04:47:00;;;;;;;8.95;2.55;;;;;;;;;;4997771;28;20041;-77
2023/07/17 04:49:26;;;;;;;6.80;2.50;;;;;;;;;;4999551;28;20038;-78
2023/07/17 04:51:52;;;;;;;6.93;2.53;;;;;;;;;;4998483;28;20030;-76
2023/07/17 04:54:18;;;;;;;5.93;2.60;;;;;;;;;;4997262;28;20042;-76
2023/07/17 04:56:44;;;;;;;6.70;2.50;;;;;;;;;;5002564;28;20033;-77
2023/07/17 04:59:11;;;;;;;5.15;2.33;;;;;;;;;;4998306;28;20038;-76
2023/07/17 05:01:37;;;;;;;4.68;2.20;;;;;;;;;;4998990;28;20045;-76
2023/07/17 05:04:03;;;;;;;5.97;2.38;;;;;;;;;;4998171;28;20375;-77
2023/07/17 05:06:32;;;;;;;5.47;1.90;;;;;;;;;;4998374;28;20025;-76
2023/07/17 05:09:00;;;;;;;3.80;2.47;;;;;;;;;;5000662;28;20370;-77
2023/07/17 05:11:27;;;;;;;5.07;2.50;;;;;;;;;;5001734;28;20035;-77
2023/07/17 05:13:53;;;;;;;4.47;2.35;;;;;;;;;;5001069;28;20097;-77
2023/07/17 05:16:21;;;;;;;6.38;2.28;;;;;;;;;;4997486;28;20038;-77
2023/07/17 05:18:47;;;;;;;4.82;2.65;;;;;;;;;;4998907;28;20045;-76
2023/07/17 05:21:13;;;;;;;5.28;2.30;;;;;;;;;;5002711;28;20038;-76
2023/07/17 05:23:39;;;;;;;4.80;2.45;;;;;;;;;;4998829;28;20456;-78
2023/07/17 05:26:08;;;;;;;5.65;2.10;;;;;;;;;;5001037;28;20034;-77
2023/07/17 05:28:34;;;;;;;7.63;2.45;;;;;;;;;;5021671;28;20030;-77
2023/07/17 05:31:00;;;;;;;6.75;2.30;;;;;;;;;;5017400;28;20355;-78
2023/07/17 05:33:26;;;;;;;5.65;3.10;;;;;;;;;;5018242;28;20744;-76
2023/07/17 05:35:52;;;;;;;8.20;2.45;;;;;;;;;;5002349;28;20033;-77
2023/07/17 05:38:18;;;;;;;5.22;2.13;;;;;;;;;;5002848;28;20354;-78
2023/07/17 05:40:44;;;;;;;6.03;2.53;;;;;;;;;;5022575;28;20034;-76
2023/07/17 05:43:10;;;;;;;8.98;2.67;;;;;;;;;;5004090;28;21517;-77
2023/07/17 05:45:39;;;;;;;6.80;2.47;;;;;;;;;;5000634;28;20045;-75
2023/07/17 05:48:05;;;;;;;7.47;2.80;;;;;;;;;;5001708;28;20033;-78
2023/07/17 05:50:31;;;;;;;7.30;3.28;;;;;;;;;;5002418;28;20042;-78
2023/07/17 05:52:57;;;;;;;10.27;2.08;;;;;;;;;;5001885;28;20033;-77
2023/07/17 05:55:24;;;;;;;4.32;2.28;;;;;;;;;;5002943;28;20069;-75
2023/07/17 05:57:50;;;;;;;6.03;2.70;;;;;;;;;;5002675;28;20044;-77
2023/07/17 06:00:16;;;;;;;8.75;3.00;;;;;;;;;;5004713;28;20038;-77
2023/07/17 06:02:42;;;;;;;6.13;2.38;;;;;;;;;;5001188;28;20038;-77
2023/07/17 06:05:09;;;;;;;8.40;2.63;;;;;;;;;;5001686;28;20125;-77
2023/07/17 06:07:35;;;;;;;6.93;2.33;;;;;;;;;;5003581;28;20033;-78
2023/07/17 06:10:01;;;;;;;5.38;2.35;;;;;;;;;;5002702;28;20030;-76
2023/07/17 06:12:30;;;;;;;5.97;2.55;;;;;;;;;;5003137;28;20078;-76
2023/07/17 06:14:56;;;;;;;6.28;2.88;;;;;;;;;;5005861;28;20443;-76
2023/07/17 06:17:22;;;;;;;7.03;2.35;;;;;;;;;;5004815;28;20038;-77
2023/07/17 06:19:48;;;;;;;6.05;2.45;;;;;;;;;;5007279;28;20044;-77
2023/07/17 06:22:14;;;;;;;4.72;2.05;;;;;;;;;;5001494;28;20037;-78
2023/07/17 06:24:40;;;;;;;10.45;2.88;;;;;;;;;;5025521;28;20029;-77
2023/07/17 06:27:08;;;;;;;7.10;4.07;;;;;;;;;;5000698;28;20049;-77
2023/07/17 06:29:34;;;;;;;6.13;2.70;;;;;;;;;;5002617;28;20034;-77
2023/07/17 06:32:01;;;;;;;10.18;2.70;;;;;;;;;;5003394;28;20087;-77
2023/07/17 06:34:27;;;;;;;7.88;2.90;;;;;;;;;;5017899;28;20462;-75
2023/07/17 06:36:55;;;;;;;8.20;2.88;;;;;;;;;;5024896;28;20041;-77
2023/07/17 06:39:23;;;;;;;8.38;2.53;;;;;;;;;;5000733;28;20025;-76
2023/07/17 06:41:49;;;;;;;6.97;2.95;;;;;;;;;;5016586;28;20099;-75
2023/07/17 06:44:15;;;;;;;7.53;2.92;;;;;;;;;;5000197;28;20022;-77
2023/07/17 06:46:42;;;;;;;6.35;2.95;;;;;;;;;;4999592;28;20038;-77
2023/07/17 06:49:08;;;;;;;9.43;3.50;;;;;;;;;;5001611;28;20623;-76
2023/07/17 06:51:34;;;;;;;8.05;3.30;;;;;;;;;;5020725;28;20042;-77
2023/07/17 06:53:59;;;;;;;9.88;3.35;;;;;;;;;;5004374;28;20517;-76
2023/07/17 06:56:25;;;;;;;5.63;3.05;;;;;;;;;;5000749;28;20044;-77
2023/07/17 06:58:54;;;;;;;13.30;3.72;;;;;;;;;;5000851;28;20435;-76
2023/07/17 07:01:20;;;;;;;5.75;3.05;;;;;;;;;;5016862;28;20033;-77
2023/07/17 07:03:46;;;;;;;11.65;3.50;;;;;;;;;;5021005;28;20036;-77
2023/07/17 07:06:14;;;;;;;8.68;3.65;;;;;;;;;;5001139;28;20033;-77
2023/07/17 07:08:42;;;;;;;10.38;4.32;;;;;;;;;;5000608;28;20080;-77
2023/07/17 07:11:08;;;;;;;14.90;4.20;;;;;;;;;;5003748;28;20133;-77
2023/07/17 07:13:34;;;;;;;6.85;3.63;;;;;;;;;;5000556;28;20447;-77
2023/07/17 07:16:00;;;;;;;10.55;3.80;;;;;;;;;;5000119;28;20053;-76
2023/07/17 07:18:26;;;;;;;7.13;3.80;;;;;;;;;;5016278;28;20040;-77
2023/07/17 07:20:52;;;;;;;9.35;3.83;;;;;;;;;;4996868;28;20034;-77
2023/07/17 07:23:18;;;;;;;12.15;4.00;;;;;;;;;;5000155;28;20069;-77
2023/07/17 07:25:44;;;;;;;10.77;4.10;;;;;;;;;;5000759;28;20045;-78
2023/07/17 07:28:11;;;;;;;8.02;3.42;;;;;;;;;;5015579;28;20026;-76
2023/07/17 07:30:37;;;;;;;6.30;3.60;;;;;;;;;;5000202;28;20052;-77
2023/07/17 07:33:03;;;;;;;10.35;4.13;;;;;;;;;;5005302;28;20038;-77
2023/07/17 07:35:30;;;;;;;7.13;3.70;;;;;;;;;;5000250;28;20034;-77
2023/07/17 07:37:56;;;;;;;7.75;3.35;;;;;;;;;;4998852;28;20107;-76
2023/07/17 07:40:22;;;;;;;6.70;3.50;;;;;;;;;;4998979;28;20065;-75
2023/07/17 07:42:48;;;;;;;7.10;3.17;;;;;;;;;;5020459;28;20072;-77
2023/07/17 07:45:16;;;;;;;16.40;4.50;;;;;;;;;;5000042;28;20081;-75
2023/07/17 07:47:42;;;;;;;10.02;3.50;;;;;;;;;;5000246;28;20099;-81
2023/07/17 07:50:10;;;;;;;6.18;3.65;;;;;;;;;;4998398;28;20557;-77
2023/07/17 07:52:36;;;;;;;7.45;3.45;;;;;;;;;;5018980;28;20072;-77
2023/07/17 07:55:05;;;;;;;10.43;4.07;;;;;;;;;;4998194;28;20030;-76
2023/07/17 07:57:31;;;;;;;8.20;3.25;;;;;;;;;;5013132;28;20068;-78
2023/07/17 08:00:02;;;;;;;7.25;3.60;;;;;;;;;;5002923;28;20029;-76
2023/07/17 08:02:28;;;;;;;6.65;3.33;;;;;;;;;;4999793;28;20057;-77
2023/07/17 08:04:54;;;;;;;7.28;3.58;;;;;;;;;;4999315;28;20091;-76
2023/07/17 08:07:20;;;;;;;6.30;3.22;;;;;;;;;;4997898;28;20037;-79
2023/07/17 08:09:46;;;;;;;8.55;3.45;;;;;;;;;;4997805;28;20545;-78
2023/07/17 08:12:12;;;;;;;7.55;3.53;;;;;;;;;;5004200;28;20126;-78
2023/07/17 08:14:37;;;;;;;8.80;3.20;;;;;;;;;;4998319;28;20172;-79
2023/07/17 08:17:06;;;;;;;7.70;4.15;;;;;;;;;;5000487;28;20065;-76
2023/07/17 08:19:32;;;;;;;8.65;4.05;;;;;;;;;;5000188;28;20044;-76
2023/07/17 08:21:58;;;;;;;11.25;3.50;;;;;;;;;;4999643;28;20122;-79
2023/07/17 08:24:24;;;;;;;7.63;4.18;;;;;;;;;;5021143;28;20452;-77
2023/07/17 08:26:50;;;;;;;8.15;3.95;;;;;;;;;;5001360;28;20026;-78
2023/07/17 08:29:16;;;;;;;9.25;3.97;;;;;;;;;;5022313;28;20892;-78
2023/07/17 08:31:42;;;;;;;6.78;3.58;;;;;;;;;;5000582;28;20030;-79
2023/07/17 08:34:08;;;;;;;10.18;3.80;;;;;;;;;;4998067;28;20060;-77
2023/07/17 08:36:34;;;;;;;8.20;3.83;;;;;;;;;;5002280;28;20462;-76
2023/07/17 08:39:00;;;;;;;5.85;3.40;;;;;;;;;;5002293;28;20034;-80
2023/07/17 08:41:26;;;;;;;12.25;3.83;;;;;;;;;;5000637;28;20438;-79
2023/07/17 08:43:52;;;;;;;9.35;4.30;;;;;;;;;;5023354;28;20065;-80
2023/07/17 08:46:23;;;;;;;12.27;4.38;;;;;;;;;;5021267;28;20078;-78
2023/07/17 08:48:49;;;;;;;7.97;4.30;;;;;;;;;;5002565;28;20030;-75
2023/07/17 08:51:16;;;;;;;10.05;4.05;;;;;;;;;;5003501;28;20038;-78
2023/07/17 08:53:44;;;;;;;6.90;4.07;;;;;;;;;;5003697;28;20465;-79
2023/07/17 08:56:11;;;;;;;6.72;4.03;;;;;;;;;;5002642;28;20030;-79
2023/07/17 08:58:40;;;;;;;9.43;4.07;;;;;;;;;;5001265;28;20051;-79
2023/07/17 09:01:07;;;;;;;6.38;3.45;;;;;;;;;;5000495;28;20037;-78
2023/07/17 09:03:36;;;;;;;9.27;5.32;;;;;;;;;;5002709;28;20374;-79
2023/07/17 09:06:03;;;;;;;5.25;3.47;;;;;;;;;;5004309;28;20041;-79
2023/07/17 09:08:29;;;;;;;10.73;3.92;;;;;;;;;;5001764;28;20374;-79
2023/07/17 09:11:05;;;;;;;10.80;3.83;;;;;;;;;;5002571;28;20487;-77
2023/07/17 09:13:37;;;;;;;6.95;3.22;;;;;;;;;;4999680;28;20375;-78
2023/07/17 09:16:19;;;;;;;7.82;3.88;;;;;;;;;;4996822;28;20069;-80
2023/07/17 09:18:49;;;;;;;8.40;4.23;;;;;;;;;;4998519;28;20040;-78
2023/07/17 09:21:18;;;;;;;6.78;4.03;;;;;;;;;;4999094;28;20061;-78
2023/07/17 09:23:46;;;;;;;5.95;3.55;;;;;;;;;;4997472;28;20034;-78
2023/07/17 09:26:15;;;;;;;8.38;3.53;;;;;;;;;;4998522;28;20083;-80
2023/07/17 09:28:46;;;;;;;7.05;3.47;;;;;;;;;;4997437;28;20034;-76
2023/07/17 09:31:14;;;;;;;8.68;3.83;;;;;;;;;;4998117;28;20117;-78
2023/07/17 09:33:42;;;;;;;11.93;3.65;;;;;;;;;;4999610;28;20026;-79
2023/07/17 09:36:12;;;;;;;8.27;4.00;;;;;;;;;;5003268;28;20038;-79
2023/07/17 09:38:40;;;;;;;10.00;4.00;;;;;;;;;;5003114;28;20026;-80
2023/07/17 09:41:26;;;;;;;10.38;4.20;;;;;;;;;;5002867;28;20587;-80
2023/07/17 09:44:04;;;;;;;6.80;3.58;;;;;;;;;;5002279;28;20195;-79
2023/07/17 09:46:37;;;;;;;6.68;4.07;;;;;;;;;;5001067;28;20156;-79
2023/07/17 09:49:04;;;;;;;8.48;4.00;;;;;;;;;;5001347;28;20025;-79
2023/07/17 09:51:30;;;;;;;6.68;3.70;;;;;;;;;;5018919;28;20030;-78
2023/07/17 09:53:58;;;;;;;7.78;3.72;;;;;;;;;;5018447;28;20378;-79
2023/07/17 09:56:27;;;;;;;13.00;3.72;;;;;;;;;;4999888;28;20034;-81
2023/07/17 09:58:55;;;;;;;8.90;4.00;;;;;;;;;;4998269;28;20049;-78
2023/07/17 10:01:23;;;;;;;9.23;4.03;;;;;;;;;;4997869;28;20423;-78
2023/07/17 10:03:50;;;;;;;7.72;3.92;;;;;;;;;;4998366;28;20057;-78
2023/07/17 10:06:17;;;;;;;7.28;3.55;;;;;;;;;;4999343;28;20026;-77
2023/07/17 10:08:44;;;;;;;5.47;3.30;;;;;;;;;;4997318;28;20045;-77
2023/07/17 10:11:10;;;;;;;7.65;3.55;;;;;;;;;;5018851;28;20036;-80
2023/07/17 10:13:36;;;;;;;11.32;3.85;;;;;;;;;;4997610;28;20026;-80
2023/07/17 10:16:02;;;;;;;7.60;3.58;;;;;;;;;;5000817;28;20033;-79
2023/07/17 10:18:30;;;;;;;8.02;3.47;;;;;;;;;;5000347;28;20117;-79
2023/07/17 10:20:57;;;;;;;7.80;3.75;;;;;;;;;;5004735;28;20026;-80
2023/07/17 10:23:24;;;;;;;9.32;4.10;;;;;;;;;;5004311;28;20149;-80
2023/07/17 10:25:50;;;;;;;7.90;3.08;;;;;;;;;;5002325;28;20999;-78
2023/07/17 10:28:29;;;;;;;7.22;3.60;;;;;;;;;;5003810;28;20447;-81
2023/07/17 10:30:55;;;;;;;9.48;3.47;;;;;;;;;;5001692;28;20137;-78
2023/07/17 10:33:22;;;;;;;8.02;3.47;;;;;;;;;;5004292;28;20451;-77
2023/07/17 10:36:00;;;;;;;11.20;3.78;;;;;;;;;;5002945;28;20023;-79
2023/07/17 10:38:30;;;;;;;7.68;3.97;;;;;;;;;;5003576;28;20042;-79
2023/07/17 10:41:06;;;;;;;8.02;4.07;;;;;;;;;;5023637;28;20042;-79
2023/07/17 10:43:35;;;;;;;7.70;3.80;;;;;;;;;;5002150;28;21631;-78
2023/07/17 10:46:08;;;;;;;6.78;3.92;;;;;;;;;;5001392;28;20034;-78
2023/07/17 10:48:36;;;;;;;10.35;4.70;;;;;;;;;;5004038;28;20038;-75
2023/07/17 10:51:02;;;;;;;7.22;3.33;;;;;;;;;;5016235;28;20397;-81
2023/07/17 10:53:28;;;;;;;9.93;3.42;;;;;;;;;;5006073;28;20030;-79
2023/07/17 10:55:54;;;;;;;7.70;3.95;;;;;;;;;;5016321;28;20513;-78
2023/07/17 10:58:21;;;;;;;10.75;3.85;;;;;;;;;;5016361;28;20662;-81
2023/07/17 11:00:48;;;;;;;9.20;3.92;;;;;;;;;;5001215;28;20038;-82
2023/07/17 11:03:14;;;;;;;6.15;3.13;;;;;;;;;;4999874;28;20033;-79
2023/07/17 11:05:41;;;;;;;9.05;4.00;;;;;;;;;;4998104;28;20059;-78
2023/07/17 11:08:08;;;;;;;8.38;3.90;;;;;;;;;;5002015;28;20026;-76
2023/07/17 11:10:35;;;;;;;9.90;3.28;;;;;;;;;;5004628;28;20049;-79
2023/07/17 11:13:04;;;;;;;8.20;3.30;;;;;;;;;;5000902;28;20104;-78
2023/07/17 11:15:33;;;;;;;8.60;3.88;;;;;;;;;;5002742;28;20025;-80
2023/07/17 11:18:00;;;;;;;7.18;3.42;;;;;;;;;;5020992;28;20030;-79
2023/07/17 11:20:26;;;;;;;5.50;3.17;;;;;;;;;;5000851;28;20041;-78
2023/07/17 11:22:52;;;;;;;6.55;3.10;;;;;;;;;;5001896;28;20463;-79
2023/07/17 11:25:19;;;;;;;7.03;3.35;;;;;;;;;;5002035;28;20037;-80
2023/07/17 11:27:46;;;;;;;7.15;2.78;;;;;;;;;;4999276;28;20030;-79
2023/07/17 11:30:15;;;;;;;4.15;2.10;;;;;;;;;;5017543;28;20145;-78
2023/07/17 11:32:41;;;;;;;6.72;2.80;;;;;;;;;;5001702;28;20037;-78
2023/07/17 11:35:09;;;;;;;7.60;3.92;;;;;;;;;;5004843;28;20029;-80
2023/07/17 11:37:37;;;;;;;14.93;4.20;;;;;;;;;;5000385;28;20061;-81
2023/07/17 11:40:06;;;;;;;13.88;4.45;;;;;;;;;;5004063;28;20027;-77
2023/07/17 11:42:52;;;;;;;16.77;5.47;;;;;;;;;;5001570;28;20049;-78
2023/07/17 11:45:21;;;;;;;9.10;4.13;;;;;;;;;;5001528;28;20102;-78
2023/07/17 11:47:47;;;;;;;6.60;3.17;;;;;;;;;;5002355;28;20064;-79
2023/07/17 11:50:13;;;;;;;7.53;3.58;;;;;;;;;;4998866;28;20034;-80
2023/07/17 11:52:39;;;;;;;6.40;3.55;;;;;;;;;;5000595;28;20099;-78
2023/07/17 11:55:05;;;;;;;9.43;3.70;;;;;;;;;;5004012;28;20729;-79
2023/07/17 11:57:31;;;;;;;9.25;3.53;;;;;;;;;;5002386;28;20030;-78
2023/07/17 12:00:10;;;;;;;6.63;3.33;;;;;;;;;;5002414;28;20367;-79
2023/07/17 12:02:36;;;;;;;8.27;3.40;;;;;;;;;;4999822;28;20125;-77
2023/07/17 12:05:02;;;;;;;8.85;3.97;;;;;;;;;;4999813;28;20678;-81
2023/07/17 12:07:28;;;;;;;16.27;4.13;;;;;;;;;;4998941;28;20030;-78
2023/07/17 12:09:54;;;;;;;7.28;3.70;;;;;;;;;;5000075;28;20033;-80
2023/07/17 12:12:20;;;;;;;7.90;3.65;;;;;;;;;;5019561;28;21541;-82
2023/07/17 12:14:46;;;;;;;5.18;3.28;;;;;;;;;;5000924;28;20028;-78
2023/07/17 12:17:15;;;;;;;12.07;3.85;;;;;;;;;;4997337;28;20603;-80
2023/07/17 12:19:43;;;;;;;9.38;3.63;;;;;;;;;;5015319;28;20042;-78
2023/07/17 12:22:09;;;;;;;9.02;3.55;;;;;;;;;;5003172;28;20033;-77
2023/07/17 12:24:35;;;;;;;7.18;3.83;;;;;;;;;;5003063;28;20014;-78
2023/07/17 12:27:02;;;;;;;7.97;3.63;;;;;;;;;;5000777;28;20057;-79
2023/07/17 12:29:28;;;;;;;5.85;3.20;;;;;;;;;;5021059;28;20064;-79
2023/07/17 12:31:53;;;;;;;7.90;4.03;;;;;;;;;;4999963;28;20081;-77
2023/07/17 12:34:24;;;;;;;10.90;3.42;;;;;;;;;;4999264;28;20502;-79
2023/07/17 12:36:50;;;;;;;8.52;3.95;;;;;;;;;;4998515;28;20025;-78
2023/07/17 12:39:16;;;;;;;9.40;3.95;;;;;;;;;;5020637;28;20041;-78
2023/07/17 12:41:43;;;;;;;12.40;4.22;;;;;;;;;;4998549;28;20037;-79
2023/07/17 12:44:10;;;;;;;7.07;4.00;;;;;;;;;;5001376;28;20033;-78
2023/07/17 12:46:36;;;;;;;7.78;3.95;;;;;;;;;;4999026;28;20164;-78
2023/07/17 12:49:02;;;;;;;9.82;4.18;;;;;;;;;;4998530;28;20115;-79
2023/07/17 12:51:28;;;;;;;9.43;4.30;;;;;;;;;;5002972;28;20580;-78
2023/07/17 12:53:54;;;;;;;7.50;4.10;;;;;;;;;;4999642;28;20030;-77
2023/07/17 12:56:20;;;;;;;10.73;4.88;;;;;;;;;;5003943;28;20650;-80
2023/07/17 12:58:46;;;;;;;13.40;4.70;;;;;;;;;;4999477;28;20029;-80
2023/07/17 13:01:12;;;;;;;6.07;3.60;;;;;;;;;;4999927;28;20092;-79
2023/07/17 13:03:38;;;;;;;16.33;4.53;;;;;;;;;;4998915;28;20041;-79
2023/07/17 13:06:04;;;;;;;18.60;4.07;;;;;;;;;;4995517;28;20084;-78
2023/07/17 13:08:30;;;;;;;8.93;3.63;;;;;;;;;;4997487;28;20026;-78
2023/07/17 13:10:56;;;;;;;9.25;4.28;;;;;;;;;;4999129;28;20033;-79
2023/07/17 13:13:22;;;;;;;10.15;3.47;;;;;;;;;;4999056;28;20038;-78
2023/07/17 13:15:50;;;;;;;7.20;3.65;;;;;;;;;;4999035;28;20038;-78
2023/07/17 13:18:16;;;;;;;8.75;3.38;;;;;;;;;;4999211;28;20465;-80
2023/07/17 13:20:42;;;;;;;8.27;3.65;;;;;;;;;;5003093;28;20045;-77
2023/07/17 13:23:13;;;;;;;9.05;4.20;;;;;;;;;;5002524;28;20418;-80
2023/07/17 13:25:39;;;;;;;6.13;3.37;;;;;;;;;;4998596;28;20034;-79
2023/07/17 13:28:05;;;;;;;6.72;3.38;;;;;;;;;;5003813;28;20108;-78
2023/07/17 13:30:31;;;;;;;9.50;3.75;;;;;;;;;;5002795;28;20121;-78
2023/07/17 13:32:57;;;;;;;5.38;3.25;;;;;;;;;;5011831;28;20451;-79
2023/07/17 13:35:25;;;;;;;8.18;3.38;;;;;;;;;;5016353;28;20030;-77
2023/07/17 13:37:51;;;;;;;7.35;3.28;;;;;;;;;;4997058;28;20674;-77
2023/07/17 13:40:17;;;;;;;9.75;3.55;;;;;;;;;;4998167;28;20037;-79
2023/07/17 13:42:46;;;;;;;5.18;3.08;;;;;;;;;;5003705;28;20072;-80
2023/07/17 13:45:12;;;;;;;12.32;4.15;;;;;;;;;;4998707;28;20049;-80
2023/07/17 13:47:38;;;;;;;8.52;3.53;;;;;;;;;;5002529;28;20462;-78
2023/07/17 13:50:05;;;;;;;7.28;3.63;;;;;;;;;;5000628;28;20057;-79
2023/07/17 13:52:31;;;;;;;9.30;4.20;;;;;;;;;;5004146;28;20044;-80
2023/07/17 13:54:57;;;;;;;5.50;2.75;;;;;;;;;;5006676;28;20029;-80
2023/07/17 13:57:25;;;;;;;7.53;3.10;;;;;;;;;;5002640;28;20045;-79
2023/07/17 13:59:53;;;;;;;13.95;3.78;;;;;;;;;;5003122;28;20041;-78
2023/07/17 14:02:19;;;;;;;12.93;3.60;;;;;;;;;;5002223;28;20207;-78
2023/07/17 14:04:48;;;;;;;5.72;3.08;;;;;;;;;;5003489;28;20068;-79
2023/07/17 14:07:14;;;;;;;6.15;3.20;;;;;;;;;;5002427;28;20036;-79
2023/07/17 14:09:40;;;;;;;7.88;3.58;;;;;;;;;;5005018;28;20355;-79
2023/07/17 14:12:06;;;;;;;10.95;3.70;;;;;;;;;;5003877;28;20038;-77
2023/07/17 14:14:32;;;;;;;7.20;3.83;;;;;;;;;;5022599;28;20025;-78
2023/07/17 14:16:58;;;;;;;4.55;2.95;;;;;;;;;;5002117;28;20030;-80
2023/07/17 14:19:24;;;;;;;5.82;2.58;;;;;;;;;;5017589;28;20485;-77
2023/07/17 14:21:50;;;;;;;6.53;3.38;;;;;;;;;;5023493;28;20026;-79
2023/07/17 14:24:16;;;;;;;9.15;3.13;;;;;;;;;;5002868;28;20025;-77
2023/07/17 14:26:42;;;;;;;7.38;3.50;;;;;;;;;;5004134;28;20034;-77
2023/07/17 14:29:07;;;;;;;6.18;3.58;;;;;;;;;;5005215;28;20805;-79
2023/07/17 14:31:34;;;;;;;9.00;3.20;;;;;;;;;;5002625;28;20038;-78
2023/07/17 14:34:00;;;;;;;5.60;2.90;;;;;;;;;;5007771;28;20426;-79
2023/07/17 14:36:26;;;;;;;6.45;3.17;;;;;;;;;;5005264;28;20026;-79
2023/07/17 14:38:51;;;;;;;9.63;2.85;;;;;;;;;;5006502;28;20042;-78